Brazoria, Texas
Current Conditions -  °F | °C
As of 11:53 PM on Wednesday 26 Nov 2014 (Local Time) from KLBX Reporting Station
Clear Clear  
Wind Chill: 45°   Ceiling: Unl
Heat Index: 45°   Visibility: 10mi
Dew Point: 45°   Wind: 0mph
Humidity: 100%   Direction: NA
Pressure: 30.32"   Gusts: NA
Location:  29.04°N, 95.57°W
Report Text: KLBX 270553Z AUTO 00000KT 10SM CLR 07/07 A3032 RMK AO2 SLP267 T00720072 10150 20067 402110050 53012
Loading
Personal Weather Stations






























Interactive Weather Map New forecast layout! Learn more

10-Day Weather Forecast

Advertisements
Track Severe Weather on mobile